sensor_id;sensor_type;location;lat;lon;timestamp;temperature;humidity
26541;DHT22;14206;50.202;10.948;2022-12-31T00:01:25;10.40;96.60
26541;DHT22;14206;50.202;10.948;2022-12-31T00:03:53;10.40;96.60
26541;DHT22;14206;50.202;10.948;2022-12-31T00:06:33;10.50;96.60
26541;DHT22;14206;50.202;10.948;2022-12-31T00:09:02;10.50;96.60
26541;DHT22;14206;50.202;10.948;2022-12-31T00:11:37;10.50;96.60
26541;DHT22;14206;50.202;10.948;2022-12-31T00:14:04;10.60;96.60
26541;DHT22;14206;50.202;10.948;2022-12-31T00:16:35;10.70;96.60
26541;DHT22;14206;50.202;10.948;2022-12-31T00:19:03;10.80;96.60
26541;DHT22;14206;50.202;10.948;2022-12-31T00:21:31;10.90;96.60
26541;DHT22;14206;50.202;10.948;2022-12-31T00:23:59;11.00;96.60
26541;DHT22;14206;50.202;10.948;2022-12-31T00:26:28;11.00;96.60
26541;DHT22;14206;50.202;10.948;2022-12-31T00:28:57;11.00;96.60
26541;DHT22;14206;50.202;10.948;2022-12-31T00:31:27;11.10;96.60
26541;DHT22;14206;50.202;10.948;2022-12-31T00:33:55;11.10;96.60
26541;DHT22;14206;50.202;10.948;2022-12-31T00:36:33;11.10;96.60
26541;DHT22;14206;50.202;10.948;2022-12-31T00:39:02;11.10;96.60
26541;DHT22;14206;50.202;10.948;2022-12-31T00:41:30;11.10;96.60
26541;DHT22;14206;50.202;10.948;2022-12-31T00:43:57;11.20;96.60
26541;DHT22;14206;50.202;10.948;2022-12-31T00:46:24;11.10;96.60
26541;DHT22;14206;50.202;10.948;2022-12-31T00:48:51;11.10;96.60
26541;DHT22;14206;50.202;10.948;2022-12-31T00:51:21;11.20;96.60
26541;DHT22;14206;50.202;10.948;2022-12-31T00:53:49;11.20;96.60
26541;DHT22;14206;50.202;10.948;2022-12-31T00:56:18;11.20;96.60
26541;DHT22;14206;50.202;10.948;2022-12-31T00:58:46;11.20;96.60
26541;DHT22;14206;50.202;10.948;2022-12-31T01:01:29;11.20;96.60
26541;DHT22;14206;50.202;10.948;2022-12-31T01:04:03;11.20;96.60
26541;DHT22;14206;50.202;10.948;2022-12-31T01:06:30;11.20;96.60
26541;DHT22;14206;50.202;10.948;2022-12-31T01:08:58;11.20;96.60
26541;DHT22;14206;50.202;10.948;2022-12-31T01:11:25;11.20;96.60
26541;DHT22;14206;50.202;10.948;2022-12-31T01:16:31;11.30;96.60
26541;DHT22;14206;50.202;10.948;2022-12-31T01:19:00;11.30;96.60
26541;DHT22;14206;50.202;10.948;2022-12-31T01:21:28;11.40;96.60
26541;DHT22;14206;50.202;10.948;2022-12-31T01:23:57;11.40;96.60
26541;DHT22;14206;50.202;10.948;2022-12-31T01:26:24;11.50;96.60
26541;DHT22;14206;50.202;10.948;2022-12-31T01:28:51;11.50;96.60
26541;DHT22;14206;50.202;10.948;2022-12-31T01:31:19;11.60;96.60
26541;DHT22;14206;50.202;10.948;2022-12-31T01:33:47;11.60;96.60
26541;DHT22;14206;50.202;10.948;2022-12-31T01:36:20;11.70;96.60
26541;DHT22;14206;50.202;10.948;2022-12-31T01:38:53;11.70;96.60
26541;DHT22;14206;50.202;10.948;2022-12-31T01:41:23;11.70;96.60
26541;DHT22;14206;50.202;10.948;2022-12-31T01:43:51;11.80;96.60
26541;DHT22;14206;50.202;10.948;2022-12-31T01:49:02;11.90;96.60
26541;DHT22;14206;50.202;10.948;2022-12-31T01:51:32;11.90;96.60
26541;DHT22;14206;50.202;10.948;2022-12-31T01:54:02;12.00;96.60
26541;DHT22;14206;50.202;10.948;2022-12-31T01:56:30;12.00;96.60
26541;DHT22;14206;50.202;10.948;2022-12-31T01:58:58;12.00;96.60
26541;DHT22;14206;50.202;10.948;2022-12-31T02:01:28;12.00;96.60
26541;DHT22;14206;50.202;10.948;2022-12-31T02:03:57;12.00;96.60
26541;DHT22;14206;50.202;10.948;2022-12-31T02:06:32;12.00;96.60
26541;DHT22;14206;50.202;10.948;2022-12-31T02:09:01;12.10;96.60
26541;DHT22;14206;50.202;10.948;2022-12-31T02:11:30;12.10;96.60
26541;DHT22;14206;50.202;10.948;2022-12-31T02:14:04;12.20;96.60
26541;DHT22;14206;50.202;10.948;2022-12-31T02:22:26;12.20;96.60
26541;DHT22;14206;50.202;10.948;2022-12-31T02:30:39;12.30;96.60
26541;DHT22;14206;50.202;10.948;2022-12-31T02:33:21;12.30;96.60
26541;DHT22;14206;50.202;10.948;2022-12-31T02:35:56;12.30;96.60
26541;DHT22;14206;50.202;10.948;2022-12-31T02:38:33;12.30;96.60
26541;DHT22;14206;50.202;10.948;2022-12-31T02:41:01;12.20;96.60
26541;DHT22;14206;50.202;10.948;2022-12-31T02:43:28;12.20;96.60
26541;DHT22;14206;50.202;10.948;2022-12-31T02:46:20;12.20;96.60
26541;DHT22;14206;50.202;10.948;2022-12-31T02:51:47;12.00;96.60
26541;DHT22;14206;50.202;10.948;2022-12-31T02:56:58;12.00;96.60
26541;DHT22;14206;50.202;10.948;2022-12-31T02:59:53;11.90;96.60
26541;DHT22;14206;50.202;10.948;2022-12-31T03:02:44;11.90;96.60
26541;DHT22;14206;50.202;10.948;2022-12-31T03:05:13;12.00;96.60
26541;DHT22;14206;50.202;10.948;2022-12-31T03:07:41;12.00;96.60
26541;DHT22;14206;50.202;10.948;2022-12-31T03:10:09;12.00;96.60
26541;DHT22;14206;50.202;10.948;2022-12-31T03:12:36;12.10;96.60
26541;DHT22;14206;50.202;10.948;2022-12-31T03:15:27;12.10;96.60
26541;DHT22;14206;50.202;10.948;2022-12-31T03:18:07;12.20;96.60
26541;DHT22;14206;50.202;10.948;2022-12-31T03:20:35;12.20;96.60
26541;DHT22;14206;50.202;10.948;2022-12-31T03:23:42;12.20;96.60
26541;DHT22;14206;50.202;10.948;2022-12-31T03:26:15;12.30;96.60
26541;DHT22;14206;50.202;10.948;2022-12-31T03:28:43;12.30;96.60
26541;DHT22;14206;50.202;10.948;2022-12-31T03:31:13;12.30;96.60
26541;DHT22;14206;50.202;10.948;2022-12-31T03:33:40;12.30;96.60
26541;DHT22;14206;50.202;10.948;2022-12-31T03:36:10;12.30;96.60
26541;DHT22;14206;50.202;10.948;2022-12-31T03:38:39;12.40;96.60
26541;DHT22;14206;50.202;10.948;2022-12-31T03:41:08;12.40;96.60
26541;DHT22;14206;50.202;10.948;2022-12-31T03:43:35;12.40;96.60
26541;DHT22;14206;50.202;10.948;2022-12-31T03:46:02;12.40;96.60
26541;DHT22;14206;50.202;10.948;2022-12-31T03:48:29;12.50;96.60
26541;DHT22;14206;50.202;10.948;2022-12-31T03:50:56;12.60;96.60
26541;DHT22;14206;50.202;10.948;2022-12-31T03:53:22;12.60;96.60
26541;DHT22;14206;50.202;10.948;2022-12-31T03:55:51;12.60;96.60
26541;DHT22;14206;50.202;10.948;2022-12-31T03:58:18;12.70;96.60
26541;DHT22;14206;50.202;10.948;2022-12-31T04:00:45;12.70;96.60
26541;DHT22;14206;50.202;10.948;2022-12-31T04:03:12;12.70;96.60
26541;DHT22;14206;50.202;10.948;2022-12-31T04:05:39;12.70;96.60
26541;DHT22;14206;50.202;10.948;2022-12-31T04:08:06;12.70;96.60
26541;DHT22;14206;50.202;10.948;2022-12-31T04:10:33;12.80;96.60
26541;DHT22;14206;50.202;10.948;2022-12-31T04:13:00;12.80;96.60
26541;DHT22;14206;50.202;10.948;2022-12-31T04:15:30;12.90;96.60
26541;DHT22;14206;50.202;10.948;2022-12-31T04:17:57;12.90;96.60
26541;DHT22;14206;50.202;10.948;2022-12-31T04:20:24;12.90;96.60
26541;DHT22;14206;50.202;10.948;2022-12-31T04:22:51;13.00;96.60
26541;DHT22;14206;50.202;10.948;2022-12-31T04:25:18;13.00;96.60
26541;DHT22;14206;50.202;10.948;2022-12-31T04:27:45;13.00;96.60
26541;DHT22;14206;50.202;10.948;2022-12-31T04:30:14;13.00;96.60
26541;DHT22;14206;50.202;10.948;2022-12-31T04:32:41;13.00;96.60
26541;DHT22;14206;50.202;10.948;2022-12-31T04:35:09;13.10;96.60
26541;DHT22;14206;50.202;10.948;2022-12-31T04:37:36;13.10;96.60
26541;DHT22;14206;50.202;10.948;2022-12-31T04:40:04;13.10;96.60
26541;DHT22;14206;50.202;10.948;2022-12-31T04:42:35;13.20;96.60
26541;DHT22;14206;50.202;10.948;2022-12-31T04:45:02;13.30;96.60
26541;DHT22;14206;50.202;10.948;2022-12-31T04:47:29;13.30;96.60
26541;DHT22;14206;50.202;10.948;2022-12-31T04:49:56;13.40;96.60
26541;DHT22;14206;50.202;10.948;2022-12-31T04:52:26;13.40;96.60
26541;DHT22;14206;50.202;10.948;2022-12-31T04:54:53;13.40;96.60
26541;DHT22;14206;50.202;10.948;2022-12-31T04:57:19;13.40;96.60
26541;DHT22;14206;50.202;10.948;2022-12-31T04:59:46;13.50;96.60
26541;DHT22;14206;50.202;10.948;2022-12-31T05:02:13;13.50;96.60
26541;DHT22;14206;50.202;10.948;2022-12-31T05:04:42;13.60;96.60
26541;DHT22;14206;50.202;10.948;2022-12-31T05:07:09;13.50;96.60
26541;DHT22;14206;50.202;10.948;2022-12-31T05:09:35;13.60;96.60
26541;DHT22;14206;50.202;10.948;2022-12-31T05:12:02;13.60;96.60
26541;DHT22;14206;50.202;10.948;2022-12-31T05:14:29;13.60;96.60
26541;DHT22;14206;50.202;10.948;2022-12-31T05:16:56;13.70;96.60
26541;DHT22;14206;50.202;10.948;2022-12-31T05:19:24;13.70;96.60
26541;DHT22;14206;50.202;10.948;2022-12-31T05:21:51;13.70;96.60
26541;DHT22;14206;50.202;10.948;2022-12-31T05:24:36;13.80;96.60
26541;DHT22;14206;50.202;10.948;2022-12-31T05:27:03;13.80;96.60
26541;DHT22;14206;50.202;10.948;2022-12-31T05:29:30;13.80;96.60
26541;DHT22;14206;50.202;10.948;2022-12-31T05:31:57;13.80;96.60
26541;DHT22;14206;50.202;10.948;2022-12-31T05:34:24;13.80;96.60
26541;DHT22;14206;50.202;10.948;2022-12-31T05:36:51;13.80;96.60
26541;DHT22;14206;50.202;10.948;2022-12-31T05:39:18;13.90;96.60
26541;DHT22;14206;50.202;10.948;2022-12-31T05:41:45;13.80;96.60
26541;DHT22;14206;50.202;10.948;2022-12-31T05:44:12;13.90;96.60
26541;DHT22;14206;50.202;10.948;2022-12-31T05:46:39;13.90;96.60
26541;DHT22;14206;50.202;10.948;2022-12-31T05:49:05;13.90;96.60
26541;DHT22;14206;50.202;10.948;2022-12-31T05:51:32;13.90;96.60
26541;DHT22;14206;50.202;10.948;2022-12-31T05:53:59;13.90;96.60
26541;DHT22;14206;50.202;10.948;2022-12-31T05:56:26;13.90;96.60
26541;DHT22;14206;50.202;10.948;2022-12-31T05:58:53;13.90;96.60
26541;DHT22;14206;50.202;10.948;2022-12-31T06:01:20;13.90;96.60
26541;DHT22;14206;50.202;10.948;2022-12-31T06:03:47;13.90;96.60
26541;DHT22;14206;50.202;10.948;2022-12-31T06:06:14;13.80;96.60
26541;DHT22;14206;50.202;10.948;2022-12-31T06:08:41;13.80;96.60
26541;DHT22;14206;50.202;10.948;2022-12-31T06:11:07;13.90;96.60
26541;DHT22;14206;50.202;10.948;2022-12-31T06:13:34;13.90;96.60
26541;DHT22;14206;50.202;10.948;2022-12-31T06:16:05;13.90;96.60
26541;DHT22;14206;50.202;10.948;2022-12-31T06:18:33;13.90;96.60
26541;DHT22;14206;50.202;10.948;2022-12-31T06:21:01;13.90;96.60
26541;DHT22;14206;50.202;10.948;2022-12-31T06:23:29;13.80;96.60
26541;DHT22;14206;50.202;10.948;2022-12-31T06:26:03;13.70;96.60
26541;DHT22;14206;50.202;10.948;2022-12-31T06:28:31;13.70;96.60
26541;DHT22;14206;50.202;10.948;2022-12-31T06:31:05;13.70;96.60
26541;DHT22;14206;50.202;10.948;2022-12-31T06:33:33;13.60;96.60
26541;DHT22;14206;50.202;10.948;2022-12-31T06:36:10;13.50;96.60
26541;DHT22;14206;50.202;10.948;2022-12-31T06:38:38;13.50;96.60
26541;DHT22;14206;50.202;10.948;2022-12-31T06:41:08;13.40;96.60
26541;DHT22;14206;50.202;10.948;2022-12-31T06:43:50;13.40;96.60
26541;DHT22;14206;50.202;10.948;2022-12-31T06:46:17;13.50;96.60
26541;DHT22;14206;50.202;10.948;2022-12-31T06:48:44;13.50;96.60
26541;DHT22;14206;50.202;10.948;2022-12-31T06:51:14;13.60;96.60
26541;DHT22;14206;50.202;10.948;2022-12-31T06:53:44;13.70;96.60
26541;DHT22;14206;50.202;10.948;2022-12-31T06:56:15;13.70;96.60
26541;DHT22;14206;50.202;10.948;2022-12-31T06:58:43;13.70;96.60
26541;DHT22;14206;50.202;10.948;2022-12-31T07:06:47;13.80;96.60
26541;DHT22;14206;50.202;10.948;2022-12-31T07:09:25;13.80;96.60
26541;DHT22;14206;50.202;10.948;2022-12-31T07:12:17;13.90;96.60
26541;DHT22;14206;50.202;10.948;2022-12-31T07:14:56;13.90;96.60
26541;DHT22;14206;50.202;10.948;2022-12-31T07:20:22;13.70;96.60
26541;DHT22;14206;50.202;10.948;2022-12-31T07:22:49;13.70;96.60
26541;DHT22;14206;50.202;10.948;2022-12-31T07:25:17;13.70;96.60
26541;DHT22;14206;50.202;10.948;2022-12-31T07:30:56;13.80;96.60
26541;DHT22;14206;50.202;10.948;2022-12-31T07:34:06;13.80;96.60
26541;DHT22;14206;50.202;10.948;2022-12-31T07:39:15;13.80;96.60
26541;DHT22;14206;50.202;10.948;2022-12-31T07:43:21;13.80;96.60
26541;DHT22;14206;50.202;10.948;2022-12-31T07:45:51;13.80;96.60
26541;DHT22;14206;50.202;10.948;2022-12-31T07:48:30;13.80;96.60
26541;DHT22;14206;50.202;10.948;2022-12-31T07:50:57;13.80;96.60
26541;DHT22;14206;50.202;10.948;2022-12-31T07:53:24;13.90;96.60
26541;DHT22;14206;50.202;10.948;2022-12-31T07:55:57;13.90;96.60
26541;DHT22;14206;50.202;10.948;2022-12-31T07:59:17;14.00;96.60
26541;DHT22;14206;50.202;10.948;2022-12-31T08:04:25;14.10;96.60
26541;DHT22;14206;50.202;10.948;2022-12-31T08:10:09;14.20;96.60
26541;DHT22;14206;50.202;10.948;2022-12-31T08:12:44;14.20;96.60
26541;DHT22;14206;50.202;10.948;2022-12-31T08:15:19;14.30;96.60
26541;DHT22;14206;50.202;10.948;2022-12-31T08:17:52;14.30;96.60
26541;DHT22;14206;50.202;10.948;2022-12-31T08:20:23;14.30;96.60
26541;DHT22;14206;50.202;10.948;2022-12-31T08:33:40;14.50;96.60
26541;DHT22;14206;50.202;10.948;2022-12-31T08:38:46;14.60;96.60
26541;DHT22;14206;50.202;10.948;2022-12-31T08:41:39;14.70;96.60
26541;DHT22;14206;50.202;10.948;2022-12-31T08:49:44;15.00;96.60
26541;DHT22;14206;50.202;10.948;2022-12-31T08:52:18;15.10;96.60
26541;DHT22;14206;50.202;10.948;2022-12-31T08:54:45;15.10;96.60
26541;DHT22;14206;50.202;10.948;2022-12-31T08:57:38;15.20;96.50
26541;DHT22;14206;50.202;10.948;2022-12-31T09:00:12;15.20;96.20
26541;DHT22;14206;50.202;10.948;2022-12-31T09:06:19;15.30;95.90
26541;DHT22;14206;50.202;10.948;2022-12-31T09:14:46;15.60;95.10
26541;DHT22;14206;50.202;10.948;2022-12-31T09:19:46;15.60;94.60
26541;DHT22;14206;50.202;10.948;2022-12-31T09:22:14;15.70;94.20
26541;DHT22;14206;50.202;10.948;2022-12-31T09:24:40;15.80;94.10
26541;DHT22;14206;50.202;10.948;2022-12-31T09:27:27;15.80;93.70
26541;DHT22;14206;50.202;10.948;2022-12-31T09:30:09;15.90;93.10
26541;DHT22;14206;50.202;10.948;2022-12-31T09:36:02;16.30;91.70
26541;DHT22;14206;50.202;10.948;2022-12-31T09:45:20;16.60;90.20
26541;DHT22;14206;50.202;10.948;2022-12-31T09:51:20;16.70;90.90
26541;DHT22;14206;50.202;10.948;2022-12-31T09:56:38;16.80;90.00
26541;DHT22;14206;50.202;10.948;2022-12-31T09:59:47;16.90;89.80
26541;DHT22;14206;50.202;10.948;2022-12-31T10:17:34;18.20;85.10
26541;DHT22;14206;50.202;10.948;2022-12-31T10:20:09;18.60;85.80
26541;DHT22;14206;50.202;10.948;2022-12-31T10:34:14;19.40;81.30
26541;DHT22;14206;50.202;10.948;2022-12-31T10:36:53;19.40;81.00
26541;DHT22;14206;50.202;10.948;2022-12-31T10:56:44;18.70;82.30
26541;DHT22;14206;50.202;10.948;2022-12-31T11:30:21;17.40;85.30
26541;DHT22;14206;50.202;10.948;2022-12-31T11:33:19;17.40;85.90
26541;DHT22;14206;50.202;10.948;2022-12-31T11:38:50;17.40;85.40
26541;DHT22;14206;50.202;10.948;2022-12-31T11:55:29;17.50;85.20
26541;DHT22;14206;50.202;10.948;2022-12-31T11:58:01;17.50;85.00
26541;DHT22;14206;50.202;10.948;2022-12-31T12:00:36;17.50;86.00
26541;DHT22;14206;50.202;10.948;2022-12-31T12:03:05;17.60;85.50
26541;DHT22;14206;50.202;10.948;2022-12-31T12:05:37;17.60;84.40
26541;DHT22;14206;50.202;10.948;2022-12-31T12:08:05;17.50;84.60
26541;DHT22;14206;50.202;10.948;2022-12-31T12:10:49;17.50;84.80
26541;DHT22;14206;50.202;10.948;2022-12-31T12:13:22;17.60;85.20
26541;DHT22;14206;50.202;10.948;2022-12-31T12:15:51;17.60;84.90
26541;DHT22;14206;50.202;10.948;2022-12-31T12:18:34;17.60;85.20
26541;DHT22;14206;50.202;10.948;2022-12-31T12:21:15;17.60;84.80
26541;DHT22;14206;50.202;10.948;2022-12-31T12:24:04;17.60;84.90
26541;DHT22;14206;50.202;10.948;2022-12-31T12:26:40;17.60;84.30
26541;DHT22;14206;50.202;10.948;2022-12-31T12:31:54;17.60;84.80
26541;DHT22;14206;50.202;10.948;2022-12-31T12:34:26;17.60;84.40
26541;DHT22;14206;50.202;10.948;2022-12-31T12:36:53;17.60;84.20
26541;DHT22;14206;50.202;10.948;2022-12-31T12:39:25;17.70;84.10
26541;DHT22;14206;50.202;10.948;2022-12-31T12:44:30;17.80;83.60
26541;DHT22;14206;50.202;10.948;2022-12-31T12:47:05;17.80;83.40
26541;DHT22;14206;50.202;10.948;2022-12-31T12:49:52;17.80;83.80
26541;DHT22;14206;50.202;10.948;2022-12-31T12:52:36;17.70;83.40
26541;DHT22;14206;50.202;10.948;2022-12-31T13:03:09;17.70;83.70
26541;DHT22;14206;50.202;10.948;2022-12-31T13:11:21;17.50;83.80
26541;DHT22;14206;50.202;10.948;2022-12-31T13:14:15;17.50;84.20
26541;DHT22;14206;50.202;10.948;2022-12-31T13:17:02;17.40;84.10
26541;DHT22;14206;50.202;10.948;2022-12-31T13:22:28;17.40;84.30
26541;DHT22;14206;50.202;10.948;2022-12-31T13:27:41;17.50;84.90
26541;DHT22;14206;50.202;10.948;2022-12-31T13:32:59;17.50;85.10
26541;DHT22;14206;50.202;10.948;2022-12-31T13:35:58;17.60;84.30
26541;DHT22;14206;50.202;10.948;2022-12-31T13:38:39;17.60;84.50
26541;DHT22;14206;50.202;10.948;2022-12-31T13:41:25;17.50;84.00
26541;DHT22;14206;50.202;10.948;2022-12-31T13:44:01;17.50;84.50
26541;DHT22;14206;50.202;10.948;2022-12-31T13:46:47;17.50;84.10
26541;DHT22;14206;50.202;10.948;2022-12-31T13:49:20;17.40;84.70
26541;DHT22;14206;50.202;10.948;2022-12-31T13:52:04;17.30;85.00
26541;DHT22;14206;50.202;10.948;2022-12-31T13:57:56;17.20;85.10
26541;DHT22;14206;50.202;10.948;2022-12-31T14:00:38;17.20;85.50
26541;DHT22;14206;50.202;10.948;2022-12-31T14:03:37;17.10;85.40
26541;DHT22;14206;50.202;10.948;2022-12-31T14:08:36;17.00;85.60
26541;DHT22;14206;50.202;10.948;2022-12-31T14:19:55;16.80;86.20
26541;DHT22;14206;50.202;10.948;2022-12-31T14:22:49;16.70;86.40
26541;DHT22;14206;50.202;10.948;2022-12-31T14:25:30;16.70;86.20
26541;DHT22;14206;50.202;10.948;2022-12-31T14:28:00;16.60;86.70
26541;DHT22;14206;50.202;10.948;2022-12-31T14:30:38;16.50;86.70
26541;DHT22;14206;50.202;10.948;2022-12-31T14:38:32;16.40;87.00
26541;DHT22;14206;50.202;10.948;2022-12-31T14:46:48;16.20;87.50
26541;DHT22;14206;50.202;10.948;2022-12-31T14:52:33;16.10;87.80
26541;DHT22;14206;50.202;10.948;2022-12-31T14:57:40;16.00;87.80
26541;DHT22;14206;50.202;10.948;2022-12-31T15:00:36;16.00;87.70
26541;DHT22;14206;50.202;10.948;2022-12-31T15:03:17;15.90;87.80
26541;DHT22;14206;50.202;10.948;2022-12-31T15:22:47;15.70;88.10
26541;DHT22;14206;50.202;10.948;2022-12-31T15:27:48;15.50;88.30
26541;DHT22;14206;50.202;10.948;2022-12-31T15:33:01;15.40;88.70
26541;DHT22;14206;50.202;10.948;2022-12-31T15:35:31;15.40;88.80
26541;DHT22;14206;50.202;10.948;2022-12-31T15:40:47;15.20;89.10
26541;DHT22;14206;50.202;10.948;2022-12-31T15:45:51;15.20;89.00
26541;DHT22;14206;50.202;10.948;2022-12-31T15:48:43;15.20;89.10
26541;DHT22;14206;50.202;10.948;2022-12-31T15:51:21;15.20;89.20
26541;DHT22;14206;50.202;10.948;2022-12-31T15:53:52;15.10;89.40
26541;DHT22;14206;50.202;10.948;2022-12-31T15:56:41;15.10;89.50
26541;DHT22;14206;50.202;10.948;2022-12-31T15:59:17;15.00;89.60
26541;DHT22;14206;50.202;10.948;2022-12-31T16:01:44;15.00;89.60
26541;DHT22;14206;50.202;10.948;2022-12-31T16:04:19;15.00;89.60
26541;DHT22;14206;50.202;10.948;2022-12-31T16:06:47;14.90;89.80
26541;DHT22;14206;50.202;10.948;2022-12-31T16:09:23;14.90;89.80
26541;DHT22;14206;50.202;10.948;2022-12-31T16:11:52;14.90;89.90
26541;DHT22;14206;50.202;10.948;2022-12-31T16:14:41;14.80;90.00
26541;DHT22;14206;50.202;10.948;2022-12-31T16:17:32;14.80;89.80
26541;DHT22;14206;50.202;10.948;2022-12-31T16:20:01;14.80;89.60
26541;DHT22;14206;50.202;10.948;2022-12-31T16:22:38;14.80;89.80
26541;DHT22;14206;50.202;10.948;2022-12-31T16:25:06;14.80;89.90
26541;DHT22;14206;50.202;10.948;2022-12-31T16:28:01;14.70;89.90
26541;DHT22;14206;50.202;10.948;2022-12-31T16:30:30;14.70;90.00
26541;DHT22;14206;50.202;10.948;2022-12-31T16:33:00;14.60;90.20
26541;DHT22;14206;50.202;10.948;2022-12-31T16:35:35;14.60;90.20
26541;DHT22;14206;50.202;10.948;2022-12-31T16:38:14;14.60;90.30
26541;DHT22;14206;50.202;10.948;2022-12-31T16:40:43;14.60;90.00
26541;DHT22;14206;50.202;10.948;2022-12-31T16:43:48;14.70;89.90
26541;DHT22;14206;50.202;10.948;2022-12-31T16:46:27;14.70;90.10
26541;DHT22;14206;50.202;10.948;2022-12-31T16:48:58;14.60;89.90
26541;DHT22;14206;50.202;10.948;2022-12-31T16:51:30;14.60;89.90
26541;DHT22;14206;50.202;10.948;2022-12-31T16:54:00;14.40;90.00
26541;DHT22;14206;50.202;10.948;2022-12-31T16:56:35;14.30;90.00
26541;DHT22;14206;50.202;10.948;2022-12-31T16:59:03;14.20;90.70
26541;DHT22;14206;50.202;10.948;2022-12-31T17:01:34;14.00;90.90
26541;DHT22;14206;50.202;10.948;2022-12-31T17:04:07;13.90;91.30
26541;DHT22;14206;50.202;10.948;2022-12-31T17:06:36;13.70;91.70
26541;DHT22;14206;50.202;10.948;2022-12-31T17:09:16;13.60;92.00
26541;DHT22;14206;50.202;10.948;2022-12-31T17:12:07;13.40;92.50
26541;DHT22;14206;50.202;10.948;2022-12-31T17:14:49;13.20;93.10
26541;DHT22;14206;50.202;10.948;2022-12-31T17:22:58;13.20;95.10
26541;DHT22;14206;50.202;10.948;2022-12-31T17:25:27;13.30;95.00
26541;DHT22;14206;50.202;10.948;2022-12-31T17:27:59;13.40;95.00
26541;DHT22;14206;50.202;10.948;2022-12-31T17:35:35;13.70;93.90
26541;DHT22;14206;50.202;10.948;2022-12-31T17:40:49;13.70;93.70
26541;DHT22;14206;50.202;10.948;2022-12-31T17:43:20;13.80;93.50
26541;DHT22;14206;50.202;10.948;2022-12-31T17:45:50;13.80;93.40
26541;DHT22;14206;50.202;10.948;2022-12-31T17:48:19;13.90;93.20
26541;DHT22;14206;50.202;10.948;2022-12-31T17:50:47;13.90;93.00
26541;DHT22;14206;50.202;10.948;2022-12-31T17:53:15;14.00;92.70
26541;DHT22;14206;50.202;10.948;2022-12-31T17:55:43;14.00;92.50
26541;DHT22;14206;50.202;10.948;2022-12-31T17:58:31;14.00;92.40
26541;DHT22;14206;50.202;10.948;2022-12-31T18:01:01;14.10;92.30
26541;DHT22;14206;50.202;10.948;2022-12-31T18:03:34;14.10;92.10
26541;DHT22;14206;50.202;10.948;2022-12-31T18:06:01;14.10;92.10
26541;DHT22;14206;50.202;10.948;2022-12-31T18:08:28;14.10;92.00
26541;DHT22;14206;50.202;10.948;2022-12-31T18:10:55;14.10;92.10
26541;DHT22;14206;50.202;10.948;2022-12-31T18:13:24;14.10;92.10
26541;DHT22;14206;50.202;10.948;2022-12-31T18:15:52;14.10;92.20
26541;DHT22;14206;50.202;10.948;2022-12-31T18:18:24;14.00;92.20
26541;DHT22;14206;50.202;10.948;2022-12-31T18:21:00;13.90;92.50
26541;DHT22;14206;50.202;10.948;2022-12-31T18:23:32;13.90;92.60
26541;DHT22;14206;50.202;10.948;2022-12-31T18:26:00;13.80;92.70
26541;DHT22;14206;50.202;10.948;2022-12-31T18:28:29;13.80;92.80
26541;DHT22;14206;50.202;10.948;2022-12-31T18:31:02;13.70;93.10
26541;DHT22;14206;50.202;10.948;2022-12-31T18:33:35;13.60;93.10
26541;DHT22;14206;50.202;10.948;2022-12-31T18:36:02;13.50;93.60
26541;DHT22;14206;50.202;10.948;2022-12-31T18:38:36;13.50;93.70
26541;DHT22;14206;50.202;10.948;2022-12-31T18:41:20;13.50;93.70
26541;DHT22;14206;50.202;10.948;2022-12-31T18:44:02;13.50;93.70
26541;DHT22;14206;50.202;10.948;2022-12-31T18:46:29;13.60;93.60
26541;DHT22;14206;50.202;10.948;2022-12-31T18:48:55;13.60;93.40
26541;DHT22;14206;50.202;10.948;2022-12-31T18:51:23;13.50;93.60
26541;DHT22;14206;50.202;10.948;2022-12-31T18:54:05;13.50;93.80
26541;DHT22;14206;50.202;10.948;2022-12-31T18:56:32;13.40;94.10
26541;DHT22;14206;50.202;10.948;2022-12-31T18:59:05;13.40;94.20
26541;DHT22;14206;50.202;10.948;2022-12-31T19:01:37;13.50;94.10
26541;DHT22;14206;50.202;10.948;2022-12-31T19:04:18;13.50;94.00
26541;DHT22;14206;50.202;10.948;2022-12-31T19:06:54;13.50;93.90
26541;DHT22;14206;50.202;10.948;2022-12-31T19:09:21;13.50;93.80
26541;DHT22;14206;50.202;10.948;2022-12-31T19:12:12;13.60;93.90
26541;DHT22;14206;50.202;10.948;2022-12-31T19:14:39;13.50;93.90
26541;DHT22;14206;50.202;10.948;2022-12-31T19:17:06;13.50;94.00
26541;DHT22;14206;50.202;10.948;2022-12-31T19:19:36;13.50;93.90
26541;DHT22;14206;50.202;10.948;2022-12-31T19:22:03;13.50;94.10
26541;DHT22;14206;50.202;10.948;2022-12-31T19:24:29;13.50;94.10
26541;DHT22;14206;50.202;10.948;2022-12-31T19:26:56;13.50;94.10
26541;DHT22;14206;50.202;10.948;2022-12-31T19:29:27;13.50;94.10
26541;DHT22;14206;50.202;10.948;2022-12-31T19:31:59;13.50;94.20
26541;DHT22;14206;50.202;10.948;2022-12-31T19:34:27;13.50;94.20
26541;DHT22;14206;50.202;10.948;2022-12-31T19:36:56;13.50;94.20
26541;DHT22;14206;50.202;10.948;2022-12-31T19:39:33;13.40;94.30
26541;DHT22;14206;50.202;10.948;2022-12-31T19:41:59;13.40;94.40
26541;DHT22;14206;50.202;10.948;2022-12-31T19:44:30;13.40;94.40
26541;DHT22;14206;50.202;10.948;2022-12-31T19:46:57;13.30;94.40
26541;DHT22;14206;50.202;10.948;2022-12-31T19:49:24;13.30;94.40
26541;DHT22;14206;50.202;10.948;2022-12-31T19:51:51;13.40;94.20
26541;DHT22;14206;50.202;10.948;2022-12-31T19:54:25;13.40;94.10
26541;DHT22;14206;50.202;10.948;2022-12-31T19:56:53;13.40;93.90
26541;DHT22;14206;50.202;10.948;2022-12-31T19:59:20;13.40;93.70
26541;DHT22;14206;50.202;10.948;2022-12-31T20:01:50;13.40;93.50
26541;DHT22;14206;50.202;10.948;2022-12-31T20:04:17;13.40;93.50
26541;DHT22;14206;50.202;10.948;2022-12-31T20:06:44;13.40;93.50
26541;DHT22;14206;50.202;10.948;2022-12-31T20:09:11;13.40;93.50
26541;DHT22;14206;50.202;10.948;2022-12-31T20:11:38;13.40;93.60
26541;DHT22;14206;50.202;10.948;2022-12-31T20:14:05;13.30;93.60
26541;DHT22;14206;50.202;10.948;2022-12-31T20:16:31;13.30;93.70
26541;DHT22;14206;50.202;10.948;2022-12-31T20:18:59;13.30;93.70
26541;DHT22;14206;50.202;10.948;2022-12-31T20:21:27;13.20;93.90
26541;DHT22;14206;50.202;10.948;2022-12-31T20:23:54;13.20;94.10
26541;DHT22;14206;50.202;10.948;2022-12-31T20:26:22;13.30;93.90
26541;DHT22;14206;50.202;10.948;2022-12-31T20:28:50;13.30;94.00
26541;DHT22;14206;50.202;10.948;2022-12-31T20:31:23;13.30;94.00